sensor_id;sensor_type;location;lat;lon;timestamp;P1;durP1;ratioP1;P2;durP2;ratioP2
15748;SDS011;7976;52.526;13.326;2022-12-29T00:00:17;7.10;;;2.03;;
15748;SDS011;7976;52.526;13.326;2022-12-29T00:02:44;6.13;;;1.90;;
15748;SDS011;7976;52.526;13.326;2022-12-29T00:05:11;10.43;;;2.10;;
15748;SDS011;7976;52.526;13.326;2022-12-29T00:07:39;6.07;;;1.75;;
15748;SDS011;7976;52.526;13.326;2022-12-29T00:10:06;4.70;;;1.73;;
15748;SDS011;7976;52.526;13.326;2022-12-29T00:12:34;7.32;;;2.00;;
15748;SDS011;7976;52.526;13.326;2022-12-29T00:15:19;5.05;;;1.88;;
15748;SDS011;7976;52.526;13.326;2022-12-29T00:18:04;7.82;;;2.05;;
15748;SDS011;7976;52.526;13.326;2022-12-29T00:20:33;7.70;;;1.85;;
15748;SDS011;7976;52.526;13.326;2022-12-29T00:23:20;5.43;;;1.70;;
15748;SDS011;7976;52.526;13.326;2022-12-29T00:26:08;9.27;;;2.10;;
15748;SDS011;7976;52.526;13.326;2022-12-29T00:28:57;6.38;;;1.95;;
15748;SDS011;7976;52.526;13.326;2022-12-29T00:31:42;9.40;;;2.10;;
15748;SDS011;7976;52.526;13.326;2022-12-29T00:34:26;4.45;;;1.48;;
15748;SDS011;7976;52.526;13.326;2022-12-29T00:37:12;6.85;;;1.80;;
15748;SDS011;7976;52.526;13.326;2022-12-29T00:39:40;6.32;;;2.08;;
15748;SDS011;7976;52.526;13.326;2022-12-29T00:42:25;7.45;;;1.80;;
15748;SDS011;7976;52.526;13.326;2022-12-29T00:45:09;6.82;;;1.73;;
15748;SDS011;7976;52.526;13.326;2022-12-29T00:47:39;5.38;;;1.90;;
15748;SDS011;7976;52.526;13.326;2022-12-29T00:50:07;8.05;;;1.77;;
15748;SDS011;7976;52.526;13.326;2022-12-29T00:52:33;6.38;;;2.00;;
15748;SDS011;7976;52.526;13.326;2022-12-29T00:55:04;6.55;;;1.80;;
15748;SDS011;7976;52.526;13.326;2022-12-29T00:57:32;6.80;;;1.95;;
15748;SDS011;7976;52.526;13.326;2022-12-29T00:59:58;7.28;;;2.17;;
15748;SDS011;7976;52.526;13.326;2022-12-29T01:02:25;4.68;;;1.65;;
15748;SDS011;7976;52.526;13.326;2022-12-29T01:04:55;7.43;;;1.80;;
15748;SDS011;7976;52.526;13.326;2022-12-29T01:07:22;6.57;;;1.80;;
15748;SDS011;7976;52.526;13.326;2022-12-29T01:09:52;5.07;;;1.70;;
15748;SDS011;7976;52.526;13.326;2022-12-29T01:12:39;6.85;;;2.08;;
15748;SDS011;7976;52.526;13.326;2022-12-29T01:15:09;4.53;;;1.67;;
15748;SDS011;7976;52.526;13.326;2022-12-29T01:17:40;5.85;;;1.88;;
15748;SDS011;7976;52.526;13.326;2022-12-29T01:20:07;6.50;;;1.95;;
15748;SDS011;7976;52.526;13.326;2022-12-29T01:22:36;5.30;;;1.80;;
15748;SDS011;7976;52.526;13.326;2022-12-29T01:25:03;6.93;;;1.77;;
15748;SDS011;7976;52.526;13.326;2022-12-29T01:27:32;7.35;;;1.83;;
15748;SDS011;7976;52.526;13.326;2022-12-29T01:30:00;6.57;;;2.40;;
15748;SDS011;7976;52.526;13.326;2022-12-29T01:32:27;4.75;;;1.60;;
15748;SDS011;7976;52.526;13.326;2022-12-29T01:34:54;6.28;;;1.90;;
15748;SDS011;7976;52.526;13.326;2022-12-29T01:37:21;4.78;;;1.70;;
15748;SDS011;7976;52.526;13.326;2022-12-29T01:39:51;5.30;;;1.70;;
15748;SDS011;7976;52.526;13.326;2022-12-29T01:42:19;5.30;;;1.80;;
15748;SDS011;7976;52.526;13.326;2022-12-29T01:44:54;8.02;;;1.83;;
15748;SDS011;7976;52.526;13.326;2022-12-29T01:47:27;18.73;;;6.88;;
15748;SDS011;7976;52.526;13.326;2022-12-29T01:50:03;17.65;;;6.50;;
15748;SDS011;7976;52.526;13.326;2022-12-29T01:52:35;8.98;;;2.63;;
15748;SDS011;7976;52.526;13.326;2022-12-29T01:55:07;7.55;;;2.33;;
15748;SDS011;7976;52.526;13.326;2022-12-29T01:57:37;11.18;;;3.05;;
15748;SDS011;7976;52.526;13.326;2022-12-29T02:00:10;10.25;;;3.53;;
15748;SDS011;7976;52.526;13.326;2022-12-29T02:02:40;8.68;;;2.50;;
15748;SDS011;7976;52.526;13.326;2022-12-29T02:05:14;7.07;;;2.00;;
15748;SDS011;7976;52.526;13.326;2022-12-29T02:07:50;6.68;;;1.75;;
15748;SDS011;7976;52.526;13.326;2022-12-29T02:10:19;6.45;;;1.77;;
15748;SDS011;7976;52.526;13.326;2022-12-29T02:12:50;5.90;;;1.88;;
15748;SDS011;7976;52.526;13.326;2022-12-29T02:15:21;7.32;;;2.10;;
15748;SDS011;7976;52.526;13.326;2022-12-29T02:18:11;4.32;;;1.42;;
15748;SDS011;7976;52.526;13.326;2022-12-29T02:24:36;4.95;;;1.63;;
15748;SDS011;7976;52.526;13.326;2022-12-29T02:28:07;5.47;;;1.50;;
15748;SDS011;7976;52.526;13.326;2022-12-29T02:31:21;6.20;;;1.60;;
15748;SDS011;7976;52.526;13.326;2022-12-29T02:34:04;6.45;;;1.70;;
15748;SDS011;7976;52.526;13.326;2022-12-29T02:36:50;6.15;;;1.92;;
15748;SDS011;7976;52.526;13.326;2022-12-29T02:39:32;7.82;;;2.15;;
15748;SDS011;7976;52.526;13.326;2022-12-29T02:42:11;5.72;;;1.73;;
15748;SDS011;7976;52.526;13.326;2022-12-29T02:44:51;5.43;;;1.67;;
15748;SDS011;7976;52.526;13.326;2022-12-29T02:47:35;6.88;;;1.63;;
15748;SDS011;7976;52.526;13.326;2022-12-29T02:50:13;4.15;;;1.50;;
15748;SDS011;7976;52.526;13.326;2022-12-29T02:52:50;6.43;;;1.85;;
15748;SDS011;7976;52.526;13.326;2022-12-29T02:55:25;4.75;;;1.63;;
15748;SDS011;7976;52.526;13.326;2022-12-29T02:58:05;6.28;;;1.58;;
15748;SDS011;7976;52.526;13.326;2022-12-29T03:00:48;5.00;;;1.80;;
15748;SDS011;7976;52.526;13.326;2022-12-29T03:03:42;5.07;;;1.40;;
15748;SDS011;7976;52.526;13.326;2022-12-29T03:06:25;4.68;;;1.63;;
15748;SDS011;7976;52.526;13.326;2022-12-29T03:09:07;6.43;;;1.85;;
15748;SDS011;7976;52.526;13.326;2022-12-29T03:11:48;5.40;;;1.60;;
15748;SDS011;7976;52.526;13.326;2022-12-29T03:14:48;8.00;;;2.10;;
15748;SDS011;7976;52.526;13.326;2022-12-29T03:17:46;6.25;;;1.80;;
15748;SDS011;7976;52.526;13.326;2022-12-29T03:20:24;4.53;;;1.63;;
15748;SDS011;7976;52.526;13.326;2022-12-29T03:23:02;6.22;;;1.70;;
15748;SDS011;7976;52.526;13.326;2022-12-29T03:25:35;4.40;;;1.58;;
15748;SDS011;7976;52.526;13.326;2022-12-29T03:28:11;6.00;;;1.60;;
15748;SDS011;7976;52.526;13.326;2022-12-29T03:30:46;5.93;;;1.50;;
15748;SDS011;7976;52.526;13.326;2022-12-29T03:33:16;5.03;;;1.58;;
15748;SDS011;7976;52.526;13.326;2022-12-29T03:35:52;4.45;;;1.40;;
15748;SDS011;7976;52.526;13.326;2022-12-29T03:38:27;5.05;;;1.73;;
15748;SDS011;7976;52.526;13.326;2022-12-29T03:41:03;5.15;;;1.50;;
15748;SDS011;7976;52.526;13.326;2022-12-29T03:43:35;6.15;;;1.40;;
15748;SDS011;7976;52.526;13.326;2022-12-29T03:46:02;5.35;;;1.45;;
15748;SDS011;7976;52.526;13.326;2022-12-29T03:48:29;6.75;;;1.60;;
15748;SDS011;7976;52.526;13.326;2022-12-29T03:50:59;6.72;;;1.83;;
15748;SDS011;7976;52.526;13.326;2022-12-29T03:53:26;4.22;;;1.52;;
15748;SDS011;7976;52.526;13.326;2022-12-29T03:55:52;5.15;;;1.50;;
15748;SDS011;7976;52.526;13.326;2022-12-29T03:58:21;4.75;;;1.60;;
15748;SDS011;7976;52.526;13.326;2022-12-29T04:01:08;6.20;;;1.40;;
15748;SDS011;7976;52.526;13.326;2022-12-29T04:03:36;5.38;;;1.60;;
15748;SDS011;7976;52.526;13.326;2022-12-29T04:06:05;6.72;;;1.60;;
15748;SDS011;7976;52.526;13.326;2022-12-29T04:08:49;6.40;;;1.85;;
15748;SDS011;7976;52.526;13.326;2022-12-29T04:11:16;6.78;;;1.60;;
15748;SDS011;7976;52.526;13.326;2022-12-29T04:13:43;5.90;;;1.50;;
15748;SDS011;7976;52.526;13.326;2022-12-29T04:16:13;6.43;;;1.58;;
15748;SDS011;7976;52.526;13.326;2022-12-29T04:18:40;5.75;;;1.48;;
15748;SDS011;7976;52.526;13.326;2022-12-29T04:21:08;4.60;;;1.45;;
15748;SDS011;7976;52.526;13.326;2022-12-29T04:23:38;6.18;;;1.70;;
15748;SDS011;7976;52.526;13.326;2022-12-29T04:26:07;5.97;;;1.70;;
15748;SDS011;7976;52.526;13.326;2022-12-29T04:28:44;5.35;;;1.50;;
15748;SDS011;7976;52.526;13.326;2022-12-29T04:31:34;4.68;;;1.63;;
15748;SDS011;7976;52.526;13.326;2022-12-29T04:34:01;5.28;;;1.90;;
15748;SDS011;7976;52.526;13.326;2022-12-29T04:36:31;5.55;;;1.50;;
15748;SDS011;7976;52.526;13.326;2022-12-29T04:38:58;3.75;;;1.60;;
15748;SDS011;7976;52.526;13.326;2022-12-29T04:41:25;4.05;;;1.40;;
15748;SDS011;7976;52.526;13.326;2022-12-29T04:43:52;5.03;;;1.77;;
15748;SDS011;7976;52.526;13.326;2022-12-29T04:46:40;6.00;;;1.50;;
15748;SDS011;7976;52.526;13.326;2022-12-29T04:49:10;4.13;;;1.40;;
15748;SDS011;7976;52.526;13.326;2022-12-29T04:51:49;5.22;;;1.50;;
15748;SDS011;7976;52.526;13.326;2022-12-29T04:54:17;4.93;;;1.70;;
15748;SDS011;7976;52.526;13.326;2022-12-29T04:56:49;4.28;;;1.67;;
15748;SDS011;7976;52.526;13.326;2022-12-29T04:59:16;5.22;;;1.40;;
15748;SDS011;7976;52.526;13.326;2022-12-29T05:01:46;5.78;;;1.80;;
15748;SDS011;7976;52.526;13.326;2022-12-29T05:04:13;5.82;;;1.60;;
15748;SDS011;7976;52.526;13.326;2022-12-29T05:06:41;6.88;;;1.80;;
15748;SDS011;7976;52.526;13.326;2022-12-29T05:09:10;3.80;;;1.40;;
15748;SDS011;7976;52.526;13.326;2022-12-29T05:11:37;3.35;;;1.38;;
15748;SDS011;7976;52.526;13.326;2022-12-29T05:14:04;5.55;;;1.70;;
15748;SDS011;7976;52.526;13.326;2022-12-29T05:16:32;3.65;;;1.48;;
15748;SDS011;7976;52.526;13.326;2022-12-29T05:18:59;5.32;;;1.67;;
15748;SDS011;7976;52.526;13.326;2022-12-29T05:21:25;5.55;;;1.58;;
15748;SDS011;7976;52.526;13.326;2022-12-29T05:23:53;4.00;;;1.30;;
15748;SDS011;7976;52.526;13.326;2022-12-29T05:26:22;4.43;;;1.45;;
15748;SDS011;7976;52.526;13.326;2022-12-29T05:29:04;6.35;;;1.73;;
15748;SDS011;7976;52.526;13.326;2022-12-29T05:31:31;5.15;;;1.60;;
15748;SDS011;7976;52.526;13.326;2022-12-29T05:34:00;6.53;;;1.70;;
15748;SDS011;7976;52.526;13.326;2022-12-29T05:36:27;5.90;;;1.65;;
15748;SDS011;7976;52.526;13.326;2022-12-29T05:38:58;4.68;;;1.50;;
15748;SDS011;7976;52.526;13.326;2022-12-29T05:41:26;6.53;;;1.73;;
15748;SDS011;7976;52.526;13.326;2022-12-29T05:44:19;4.18;;;1.73;;
15748;SDS011;7976;52.526;13.326;2022-12-29T05:47:03;6.35;;;1.60;;
15748;SDS011;7976;52.526;13.326;2022-12-29T05:49:53;4.20;;;1.60;;
15748;SDS011;7976;52.526;13.326;2022-12-29T05:52:32;5.95;;;1.42;;
15748;SDS011;7976;52.526;13.326;2022-12-29T05:54:59;6.70;;;1.70;;
15748;SDS011;7976;52.526;13.326;2022-12-29T05:57:30;5.68;;;1.65;;
15748;SDS011;7976;52.526;13.326;2022-12-29T06:00:09;4.90;;;1.50;;
15748;SDS011;7976;52.526;13.326;2022-12-29T06:02:40;4.72;;;1.63;;
15748;SDS011;7976;52.526;13.326;2022-12-29T06:05:08;4.88;;;1.60;;
15748;SDS011;7976;52.526;13.326;2022-12-29T06:07:37;6.03;;;2.03;;
15748;SDS011;7976;52.526;13.326;2022-12-29T06:10:04;5.68;;;1.70;;
15748;SDS011;7976;52.526;13.326;2022-12-29T06:12:42;5.40;;;1.52;;
15748;SDS011;7976;52.526;13.326;2022-12-29T06:15:09;5.40;;;1.55;;
15748;SDS011;7976;52.526;13.326;2022-12-29T06:17:38;7.70;;;1.80;;
15748;SDS011;7976;52.526;13.326;2022-12-29T06:20:06;5.47;;;1.55;;
15748;SDS011;7976;52.526;13.326;2022-12-29T06:22:35;5.53;;;1.60;;
15748;SDS011;7976;52.526;13.326;2022-12-29T06:25:02;5.68;;;1.60;;
15748;SDS011;7976;52.526;13.326;2022-12-29T06:27:31;5.78;;;1.50;;
15748;SDS011;7976;52.526;13.326;2022-12-29T06:30:00;5.25;;;1.60;;
15748;SDS011;7976;52.526;13.326;2022-12-29T06:32:27;3.55;;;1.20;;
15748;SDS011;7976;52.526;13.326;2022-12-29T06:34:59;4.60;;;1.40;;
15748;SDS011;7976;52.526;13.326;2022-12-29T06:37:27;3.22;;;1.38;;
15748;SDS011;7976;52.526;13.326;2022-12-29T06:39:55;4.50;;;1.35;;
15748;SDS011;7976;52.526;13.326;2022-12-29T06:42:25;5.88;;;1.48;;
15748;SDS011;7976;52.526;13.326;2022-12-29T06:45:19;5.07;;;1.40;;
15748;SDS011;7976;52.526;13.326;2022-12-29T06:47:46;4.22;;;1.45;;
15748;SDS011;7976;52.526;13.326;2022-12-29T06:50:13;4.35;;;1.48;;
15748;SDS011;7976;52.526;13.326;2022-12-29T06:52:40;5.72;;;1.55;;
15748;SDS011;7976;52.526;13.326;2022-12-29T06:55:07;5.03;;;1.50;;
15748;SDS011;7976;52.526;13.326;2022-12-29T06:57:34;4.18;;;1.30;;
15748;SDS011;7976;52.526;13.326;2022-12-29T07:00:02;3.92;;;1.20;;
15748;SDS011;7976;52.526;13.326;2022-12-29T07:02:31;2.92;;;1.10;;
15748;SDS011;7976;52.526;13.326;2022-12-29T07:04:57;5.10;;;1.40;;
15748;SDS011;7976;52.526;13.326;2022-12-29T07:07:24;3.63;;;1.40;;
15748;SDS011;7976;52.526;13.326;2022-12-29T07:09:51;5.57;;;1.48;;
15748;SDS011;7976;52.526;13.326;2022-12-29T07:12:18;4.13;;;1.45;;
15748;SDS011;7976;52.526;13.326;2022-12-29T07:14:45;4.10;;;1.50;;
15748;SDS011;7976;52.526;13.326;2022-12-29T07:17:11;4.10;;;1.42;;
15748;SDS011;7976;52.526;13.326;2022-12-29T07:19:40;3.97;;;1.50;;
15748;SDS011;7976;52.526;13.326;2022-12-29T07:22:06;4.63;;;1.70;;
15748;SDS011;7976;52.526;13.326;2022-12-29T07:24:35;4.25;;;1.48;;
15748;SDS011;7976;52.526;13.326;2022-12-29T07:27:02;3.25;;;1.40;;
15748;SDS011;7976;52.526;13.326;2022-12-29T07:29:30;4.15;;;1.42;;
15748;SDS011;7976;52.526;13.326;2022-12-29T07:31:56;4.97;;;1.33;;
15748;SDS011;7976;52.526;13.326;2022-12-29T07:34:23;4.60;;;1.83;;
15748;SDS011;7976;52.526;13.326;2022-12-29T07:36:51;3.17;;;1.25;;
15748;SDS011;7976;52.526;13.326;2022-12-29T07:39:18;5.80;;;1.30;;
15748;SDS011;7976;52.526;13.326;2022-12-29T07:41:45;4.22;;;1.40;;
15748;SDS011;7976;52.526;13.326;2022-12-29T07:44:16;5.13;;;1.33;;
15748;SDS011;7976;52.526;13.326;2022-12-29T07:46:55;4.43;;;1.27;;
15748;SDS011;7976;52.526;13.326;2022-12-29T07:49:22;4.45;;;1.60;;
15748;SDS011;7976;52.526;13.326;2022-12-29T07:51:49;3.90;;;1.30;;
15748;SDS011;7976;52.526;13.326;2022-12-29T07:54:18;4.07;;;1.45;;
15748;SDS011;7976;52.526;13.326;2022-12-29T07:56:47;3.70;;;1.40;;
15748;SDS011;7976;52.526;13.326;2022-12-29T07:59:14;4.18;;;1.30;;
15748;SDS011;7976;52.526;13.326;2022-12-29T08:01:41;4.55;;;1.70;;
15748;SDS011;7976;52.526;13.326;2022-12-29T08:04:08;3.58;;;1.27;;
15748;SDS011;7976;52.526;13.326;2022-12-29T08:06:35;4.30;;;1.42;;
15748;SDS011;7976;52.526;13.326;2022-12-29T08:09:04;4.63;;;1.52;;
15748;SDS011;7976;52.526;13.326;2022-12-29T08:11:31;4.68;;;1.42;;
15748;SDS011;7976;52.526;13.326;2022-12-29T08:13:58;2.78;;;1.20;;
15748;SDS011;7976;52.526;13.326;2022-12-29T08:16:25;3.30;;;1.30;;
15748;SDS011;7976;52.526;13.326;2022-12-29T08:18:51;5.10;;;1.35;;
15748;SDS011;7976;52.526;13.326;2022-12-29T08:21:18;7.20;;;1.77;;
15748;SDS011;7976;52.526;13.326;2022-12-29T08:23:45;4.63;;;1.20;;
15748;SDS011;7976;52.526;13.326;2022-12-29T08:26:15;5.57;;;1.50;;
15748;SDS011;7976;52.526;13.326;2022-12-29T08:28:42;5.97;;;1.50;;
15748;SDS011;7976;52.526;13.326;2022-12-29T08:31:09;4.35;;;1.38;;
15748;SDS011;7976;52.526;13.326;2022-12-29T08:33:36;4.45;;;1.30;;
15748;SDS011;7976;52.526;13.326;2022-12-29T08:36:04;5.57;;;1.33;;
15748;SDS011;7976;52.526;13.326;2022-12-29T08:38:33;5.35;;;1.40;;
15748;SDS011;7976;52.526;13.326;2022-12-29T08:41:00;2.85;;;1.13;;
15748;SDS011;7976;52.526;13.326;2022-12-29T08:43:29;4.78;;;1.50;;
15748;SDS011;7976;52.526;13.326;2022-12-29T08:45:57;5.53;;;1.40;;
15748;SDS011;7976;52.526;13.326;2022-12-29T08:48:23;5.88;;;1.60;;
15748;SDS011;7976;52.526;13.326;2022-12-29T08:50:50;5.15;;;1.60;;
15748;SDS011;7976;52.526;13.326;2022-12-29T08:53:18;4.55;;;1.67;;
15748;SDS011;7976;52.526;13.326;2022-12-29T08:55:45;3.67;;;1.75;;
15748;SDS011;7976;52.526;13.326;2022-12-29T08:58:20;6.88;;;2.78;;
15748;SDS011;7976;52.526;13.326;2022-12-29T09:00:48;4.70;;;1.38;;
15748;SDS011;7976;52.526;13.326;2022-12-29T09:03:15;4.65;;;1.30;;
15748;SDS011;7976;52.526;13.326;2022-12-29T09:05:41;4.60;;;1.27;;
15748;SDS011;7976;52.526;13.326;2022-12-29T09:08:08;5.88;;;1.70;;
15748;SDS011;7976;52.526;13.326;2022-12-29T09:10:35;3.90;;;1.33;;
15748;SDS011;7976;52.526;13.326;2022-12-29T09:13:02;4.90;;;1.38;;
15748;SDS011;7976;52.526;13.326;2022-12-29T09:15:29;4.78;;;1.50;;
15748;SDS011;7976;52.526;13.326;2022-12-29T09:17:57;5.10;;;1.67;;
15748;SDS011;7976;52.526;13.326;2022-12-29T09:20:24;6.50;;;1.45;;
15748;SDS011;7976;52.526;13.326;2022-12-29T09:22:50;4.78;;;1.50;;
15748;SDS011;7976;52.526;13.326;2022-12-29T09:25:17;4.28;;;1.10;;
15748;SDS011;7976;52.526;13.326;2022-12-29T09:27:44;6.28;;;1.60;;
15748;SDS011;7976;52.526;13.326;2022-12-29T09:30:13;6.18;;;1.45;;
15748;SDS011;7976;52.526;13.326;2022-12-29T09:32:41;6.40;;;1.65;;
15748;SDS011;7976;52.526;13.326;2022-12-29T09:35:09;3.95;;;1.38;;
15748;SDS011;7976;52.526;13.326;2022-12-29T09:37:36;5.00;;;1.40;;
15748;SDS011;7976;52.526;13.326;2022-12-29T09:40:04;5.35;;;1.45;;
15748;SDS011;7976;52.526;13.326;2022-12-29T09:42:35;4.55;;;1.30;;
15748;SDS011;7976;52.526;13.326;2022-12-29T09:45:12;5.72;;;1.45;;
15748;SDS011;7976;52.526;13.326;2022-12-29T09:47:44;4.30;;;1.40;;
15748;SDS011;7976;52.526;13.326;2022-12-29T09:50:16;3.65;;;1.10;;
15748;SDS011;7976;52.526;13.326;2022-12-29T09:52:50;3.97;;;1.30;;
15748;SDS011;7976;52.526;13.326;2022-12-29T09:55:29;6.30;;;1.45;;
15748;SDS011;7976;52.526;13.326;2022-12-29T09:58:04;5.28;;;1.77;;
15748;SDS011;7976;52.526;13.326;2022-12-29T10:00:40;3.75;;;1.27;;
15748;SDS011;7976;52.526;13.326;2022-12-29T10:03:16;4.38;;;1.45;;
15748;SDS011;7976;52.526;13.326;2022-12-29T10:05:49;4.07;;;1.30;;
15748;SDS011;7976;52.526;13.326;2022-12-29T10:08:27;5.05;;;1.30;;
15748;SDS011;7976;52.526;13.326;2022-12-29T10:11:08;5.80;;;1.30;;
15748;SDS011;7976;52.526;13.326;2022-12-29T10:13:54;4.15;;;1.33;;
15748;SDS011;7976;52.526;13.326;2022-12-29T10:16:43;4.57;;;1.25;;
15748;SDS011;7976;52.526;13.326;2022-12-29T10:19:26;6.45;;;1.38;;
15748;SDS011;7976;52.526;13.326;2022-12-29T10:22:19;3.72;;;1.27;;
15748;SDS011;7976;52.526;13.326;2022-12-29T10:25:08;5.85;;;1.52;;
15748;SDS011;7976;52.526;13.326;2022-12-29T10:27:44;4.20;;;1.42;;
15748;SDS011;7976;52.526;13.326;2022-12-29T10:30:14;6.35;;;1.50;;
15748;SDS011;7976;52.526;13.326;2022-12-29T10:32:44;4.35;;;1.33;;
15748;SDS011;7976;52.526;13.326;2022-12-29T10:35:16;3.47;;;1.27;;
15748;SDS011;7976;52.526;13.326;2022-12-29T10:37:49;6.22;;;1.33;;
15748;SDS011;7976;52.526;13.326;2022-12-29T10:40:25;6.18;;;1.48;;
15748;SDS011;7976;52.526;13.326;2022-12-29T10:43:02;3.38;;;1.40;;
15748;SDS011;7976;52.526;13.326;2022-12-29T10:45:45;3.60;;;1.10;;
15748;SDS011;7976;52.526;13.326;2022-12-29T10:48:15;4.53;;;1.20;;
15748;SDS011;7976;52.526;13.326;2022-12-29T10:50:48;6.75;;;1.65;;
15748;SDS011;7976;52.526;13.326;2022-12-29T10:53:19;5.05;;;1.67;;
15748;SDS011;7976;52.526;13.326;2022-12-29T10:55:52;4.00;;;1.55;;
15748;SDS011;7976;52.526;13.326;2022-12-29T10:58:20;5.00;;;1.58;;
15748;SDS011;7976;52.526;13.326;2022-12-29T11:00:50;4.07;;;1.00;;
15748;SDS011;7976;52.526;13.326;2022-12-29T11:03:39;6.38;;;1.70;;
15748;SDS011;7976;52.526;13.326;2022-12-29T11:06:24;5.00;;;1.63;;
15748;SDS011;7976;52.526;13.326;2022-12-29T11:08:56;4.10;;;1.25;;
15748;SDS011;7976;52.526;13.326;2022-12-29T11:11:28;5.25;;;1.48;;
15748;SDS011;7976;52.526;13.326;2022-12-29T11:14:02;5.25;;;1.50;;
15748;SDS011;7976;52.526;13.326;2022-12-29T11:16:38;4.45;;;1.60;;
15748;SDS011;7976;52.526;13.326;2022-12-29T11:19:12;4.72;;;1.33;;
15748;SDS011;7976;52.526;13.326;2022-12-29T11:21:47;5.25;;;1.17;;
15748;SDS011;7976;52.526;13.326;2022-12-29T11:24:20;4.40;;;1.20;;
15748;SDS011;7976;52.526;13.326;2022-12-29T11:26:50;5.38;;;1.30;;
15748;SDS011;7976;52.526;13.326;2022-12-29T11:29:26;5.18;;;1.50;;
15748;SDS011;7976;52.526;13.326;2022-12-29T11:31:56;4.22;;;1.30;;
15748;SDS011;7976;52.526;13.326;2022-12-29T11:34:25;4.55;;;1.35;;
15748;SDS011;7976;52.526;13.326;2022-12-29T11:36:58;3.53;;;1.10;;
15748;SDS011;7976;52.526;13.326;2022-12-29T11:39:32;4.93;;;1.20;;
15748;SDS011;7976;52.526;13.326;2022-12-29T11:42:05;7.38;;;1.33;;
15748;SDS011;7976;52.526;13.326;2022-12-29T11:44:42;4.45;;;1.20;;
15748;SDS011;7976;52.526;13.326;2022-12-29T11:47:20;3.45;;;1.30;;
15748;SDS011;7976;52.526;13.326;2022-12-29T11:49:54;3.72;;;1.15;;
15748;SDS011;7976;52.526;13.326;2022-12-29T11:52:25;5.80;;;1.65;;
15748;SDS011;7976;52.526;13.326;2022-12-29T11:54:59;2.80;;;1.17;;
15748;SDS011;7976;52.526;13.326;2022-12-29T11:57:28;3.55;;;1.20;;
15748;SDS011;7976;52.526;13.326;2022-12-29T11:59:59;4.20;;;1.20;;
15748;SDS011;7976;52.526;13.326;2022-12-29T12:02:40;2.97;;;1.10;;
15748;SDS011;7976;52.526;13.326;2022-12-29T12:05:21;2.95;;;1.00;;
15748;SDS011;7976;52.526;13.326;2022-12-29T12:07:54;3.47;;;1.10;;
15748;SDS011;7976;52.526;13.326;2022-12-29T12:10:31;4.88;;;1.13;;
15748;SDS011;7976;52.526;13.326;2022-12-29T12:13:46;4.57;;;0.93;;
15748;SDS011;7976;52.526;13.326;2022-12-29T12:16:38;3.47;;;1.20;;
15748;SDS011;7976;52.526;13.326;2022-12-29T12:19:12;4.93;;;1.20;;
15748;SDS011;7976;52.526;13.326;2022-12-29T12:21:50;5.18;;;1.30;;
15748;SDS011;7976;52.526;13.326;2022-12-29T12:24:37;2.55;;;0.98;;
15748;SDS011;7976;52.526;13.326;2022-12-29T12:33:15;3.25;;;1.10;;
15748;SDS011;7976;52.526;13.326;2022-12-29T12:36:04;3.80;;;1.10;;
15748;SDS011;7976;52.526;13.326;2022-12-29T12:38:49;3.60;;;1.10;;
15748;SDS011;7976;52.526;13.326;2022-12-29T12:41:30;2.75;;;1.02;;
15748;SDS011;7976;52.526;13.326;2022-12-29T12:44:18;3.28;;;0.80;;
15748;SDS011;7976;52.526;13.326;2022-12-29T12:47:07;6.50;;;1.48;;
15748;SDS011;7976;52.526;13.326;2022-12-29T12:50:05;4.47;;;1.20;;
15748;SDS011;7976;52.526;13.326;2022-12-29T12:53:11;4.68;;;1.40;;
15748;SDS011;7976;52.526;13.326;2022-12-29T12:56:08;3.35;;;0.90;;
15748;SDS011;7976;52.526;13.326;2022-12-29T12:58:58;3.05;;;0.90;;
15748;SDS011;7976;52.526;13.326;2022-12-29T13:01:38;2.33;;;0.90;;
15748;SDS011;7976;52.526;13.326;2022-12-29T13:04:25;2.90;;;0.95;;
15748;SDS011;7976;52.526;13.326;2022-12-29T13:07:20;4.43;;;1.33;;
15748;SDS011;7976;52.526;13.326;2022-12-29T13:10:12;2.03;;;0.95;;
15748;SDS011;7976;52.526;13.326;2022-12-29T13:13:07;3.05;;;1.40;;
15748;SDS011;7976;52.526;13.326;2022-12-29T13:15:57;3.90;;;1.20;;
15748;SDS011;7976;52.526;13.326;2022-12-29T13:18:37;3.47;;;0.95;;
15748;SDS011;7976;52.526;13.326;2022-12-29T13:21:22;3.35;;;1.35;;
15748;SDS011;7976;52.526;13.326;2022-12-29T13:24:04;4.60;;;1.30;;
15748;SDS011;7976;52.526;13.326;2022-12-29T13:26:44;1.48;;;0.85;;
15748;SDS011;7976;52.526;13.326;2022-12-29T13:29:18;2.53;;;1.00;;
15748;SDS011;7976;52.526;13.326;2022-12-29T13:31:54;2.42;;;1.00;;
15748;SDS011;7976;52.526;13.326;2022-12-29T13:34:42;4.60;;;1.17;;
15748;SDS011;7976;52.526;13.326;2022-12-29T13:37:20;5.47;;;1.40;;
15748;SDS011;7976;52.526;13.326;2022-12-29T13:39:56;4.25;;;1.20;;
15748;SDS011;7976;52.526;13.326;2022-12-29T13:42:28;5.13;;;1.30;;
15748;SDS011;7976;52.526;13.326;2022-12-29T13:44:58;4.75;;;1.35;;
15748;SDS011;7976;52.526;13.326;2022-12-29T13:47:32;3.83;;;1.23;;
15748;SDS011;7976;52.526;13.326;2022-12-29T13:50:06;3.53;;;1.17;;
15748;SDS011;7976;52.526;13.326;2022-12-29T13:52:44;5.03;;;1.25;;
15748;SDS011;7976;52.526;13.326;2022-12-29T13:55:28;3.75;;;1.10;;
15748;SDS011;7976;52.526;13.326;2022-12-29T13:58:03;5.05;;;1.50;;
15748;SDS011;7976;52.526;13.326;2022-12-29T14:00:43;6.13;;;1.55;;
15748;SDS011;7976;52.526;13.326;2022-12-29T14:03:40;6.47;;;2.40;;
15748;SDS011;7976;52.526;13.326;2022-12-29T14:06:15;6.97;;;2.22;;
15748;SDS011;7976;52.526;13.326;2022-12-29T14:08:50;12.30;;;3.90;;
15748;SDS011;7976;52.526;13.326;2022-12-29T14:11:28;8.73;;;2.28;;
15748;SDS011;7976;52.526;13.326;2022-12-29T14:13:59;6.15;;;1.70;;
15748;SDS011;7976;52.526;13.326;2022-12-29T14:16:37;5.45;;;1.60;;
15748;SDS011;7976;52.526;13.326;2022-12-29T14:19:10;3.85;;;1.42;;
15748;SDS011;7976;52.526;13.326;2022-12-29T14:21:49;5.75;;;1.65;;
15748;SDS011;7976;52.526;13.326;2022-12-29T14:24:37;4.70;;;1.52;;
15748;SDS011;7976;52.526;13.326;2022-12-29T14:33:19;7.18;;;1.60;;
15748;SDS011;7976;52.526;13.326;2022-12-29T14:35:49;5.50;;;1.50;;
15748;SDS011;7976;52.526;13.326;2022-12-29T14:41:18;4.95;;;1.45;;
15748;SDS011;7976;52.526;13.326;2022-12-29T14:43:57;4.78;;;1.60;;
15748;SDS011;7976;52.526;13.326;2022-12-29T14:46:53;7.30;;;1.77;;
15748;SDS011;7976;52.526;13.326;2022-12-29T14:49:25;6.25;;;1.67;;
15748;SDS011;7976;52.526;13.326;2022-12-29T14:52:04;6.30;;;1.60;;
15748;SDS011;7976;52.526;13.326;2022-12-29T14:57:27;5.10;;;1.60;;
15748;SDS011;7976;52.526;13.326;2022-12-29T15:00:16;3.80;;;1.17;;
15748;SDS011;7976;52.526;13.326;2022-12-29T15:02:49;3.90;;;1.48;;
15748;SDS011;7976;52.526;13.326;2022-12-29T15:05:30;3.90;;;1.20;;
15748;SDS011;7976;52.526;13.326;2022-12-29T15:08:03;4.65;;;1.60;;
15748;SDS011;7976;52.526;13.326;2022-12-29T15:10:34;5.45;;;1.65;;
15748;SDS011;7976;52.526;13.326;2022-12-29T15:13:13;5.22;;;1.83;;
15748;SDS011;7976;52.526;13.326;2022-12-29T15:15:45;5.60;;;1.20;;
15748;SDS011;7976;52.526;13.326;2022-12-29T15:18:14;4.53;;;1.20;;
15748;SDS011;7976;52.526;13.326;2022-12-29T15:20:50;3.67;;;1.08;;
15748;SDS011;7976;52.526;13.326;2022-12-29T15:23:21;4.70;;;1.63;;
15748;SDS011;7976;52.526;13.326;2022-12-29T15:25:50;4.10;;;1.20;;
15748;SDS011;7976;52.526;13.326;2022-12-29T15:28:22;5.05;;;1.17;;
15748;SDS011;7976;52.526;13.326;2022-12-29T15:30:56;4.60;;;2.00;;
15748;SDS011;7976;52.526;13.326;2022-12-29T15:33:30;6.43;;;2.30;;
15748;SDS011;7976;52.526;13.326;2022-12-29T15:36:03;7.03;;;2.70;;
15748;SDS011;7976;52.526;13.326;2022-12-29T15:38:38;6.55;;;2.60;;
15748;SDS011;7976;52.526;13.326;2022-12-29T15:41:06;6.68;;;2.63;;
15748;SDS011;7976;52.526;13.326;2022-12-29T15:43:52;6.72;;;2.40;;
15748;SDS011;7976;52.526;13.326;2022-12-29T15:46:33;6.25;;;1.60;;
15748;SDS011;7976;52.526;13.326;2022-12-29T15:49:03;5.60;;;1.60;;
15748;SDS011;7976;52.526;13.326;2022-12-29T15:51:34;3.78;;;1.40;;